sensor_id;sensor_type;location;lat;lon;timestamp;temperature;humidity
8103;DHT22;4094;49.948;11.574;2023-07-28T00:02:04;20.20;80.80
8103;DHT22;4094;49.948;11.574;2023-07-28T00:04:34;20.20;80.80
8103;DHT22;4094;49.948;11.574;2023-07-28T00:07:04;20.20;80.70
8103;DHT22;4094;49.948;11.574;2023-07-28T00:09:35;20.20;80.70
8103;DHT22;4094;49.948;11.574;2023-07-28T00:12:06;20.20;80.80
8103;DHT22;4094;49.948;11.574;2023-07-28T00:14:35;20.20;80.90
8103;DHT22;4094;49.948;11.574;2023-07-28T00:17:05;20.20;81.00
8103;DHT22;4094;49.948;11.574;2023-07-28T00:19:34;20.20;81.00
8103;DHT22;4094;49.948;11.574;2023-07-28T00:22:04;20.20;81.00
8103;DHT22;4094;49.948;11.574;2023-07-28T00:24:35;20.20;81.30
8103;DHT22;4094;49.948;11.574;2023-07-28T00:27:04;20.20;81.40
8103;DHT22;4094;49.948;11.574;2023-07-28T00:29:34;20.20;81.40
8103;DHT22;4094;49.948;11.574;2023-07-28T00:32:04;20.20;81.50
8103;DHT22;4094;49.948;11.574;2023-07-28T00:34:33;20.20;81.50
8103;DHT22;4094;49.948;11.574;2023-07-28T00:37:02;20.20;81.50
8103;DHT22;4094;49.948;11.574;2023-07-28T00:39:32;20.20;81.70
8103;DHT22;4094;49.948;11.574;2023-07-28T00:42:03;20.20;81.60
8103;DHT22;4094;49.948;11.574;2023-07-28T00:44:32;20.20;81.60
8103;DHT22;4094;49.948;11.574;2023-07-28T00:47:02;20.20;81.70
8103;DHT22;4094;49.948;11.574;2023-07-28T00:49:32;20.20;81.80
8103;DHT22;4094;49.948;11.574;2023-07-28T00:52:01;20.20;81.60
8103;DHT22;4094;49.948;11.574;2023-07-28T00:54:31;20.20;81.60
8103;DHT22;4094;49.948;11.574;2023-07-28T00:57:05;20.20;81.50
8103;DHT22;4094;49.948;11.574;2023-07-28T00:59:35;20.20;81.50
8103;DHT22;4094;49.948;11.574;2023-07-28T01:02:05;20.20;81.50
8103;DHT22;4094;49.948;11.574;2023-07-28T01:04:35;20.20;81.50
8103;DHT22;4094;49.948;11.574;2023-07-28T01:07:09;20.20;81.50
8103;DHT22;4094;49.948;11.574;2023-07-28T01:09:46;20.20;81.50
8103;DHT22;4094;49.948;11.574;2023-07-28T01:12:19;20.20;81.40
8103;DHT22;4094;49.948;11.574;2023-07-28T01:14:50;20.20;81.50
8103;DHT22;4094;49.948;11.574;2023-07-28T01:17:20;20.20;81.50
8103;DHT22;4094;49.948;11.574;2023-07-28T01:19:52;20.20;81.40
8103;DHT22;4094;49.948;11.574;2023-07-28T01:22:44;20.20;81.40
8103;DHT22;4094;49.948;11.574;2023-07-28T01:25:22;20.20;81.40
8103;DHT22;4094;49.948;11.574;2023-07-28T01:27:59;20.20;81.50
8103;DHT22;4094;49.948;11.574;2023-07-28T01:30:29;20.20;81.40
8103;DHT22;4094;49.948;11.574;2023-07-28T01:32:59;20.20;81.40
8103;DHT22;4094;49.948;11.574;2023-07-28T01:35:28;20.20;81.30
8103;DHT22;4094;49.948;11.574;2023-07-28T01:37:58;20.20;81.40
8103;DHT22;4094;49.948;11.574;2023-07-28T01:40:27;20.20;81.40
8103;DHT22;4094;49.948;11.574;2023-07-28T01:42:58;20.20;81.40
8103;DHT22;4094;49.948;11.574;2023-07-28T01:45:28;20.20;81.40
8103;DHT22;4094;49.948;11.574;2023-07-28T01:47:57;20.20;81.40
8103;DHT22;4094;49.948;11.574;2023-07-28T01:50:27;20.20;81.40
8103;DHT22;4094;49.948;11.574;2023-07-28T01:52:56;20.20;81.40
8103;DHT22;4094;49.948;11.574;2023-07-28T01:55:26;20.20;81.50
8103;DHT22;4094;49.948;11.574;2023-07-28T01:57:58;20.20;81.50
8103;DHT22;4094;49.948;11.574;2023-07-28T02:00:29;20.20;81.50
8103;DHT22;4094;49.948;11.574;2023-07-28T02:02:58;20.20;81.50
8103;DHT22;4094;49.948;11.574;2023-07-28T02:05:30;20.20;81.50
8103;DHT22;4094;49.948;11.574;2023-07-28T02:07:59;20.20;81.50
8103;DHT22;4094;49.948;11.574;2023-07-28T02:10:29;20.20;81.40
8103;DHT22;4094;49.948;11.574;2023-07-28T02:12:59;20.20;81.40
8103;DHT22;4094;49.948;11.574;2023-07-28T02:15:29;20.20;81.40
8103;DHT22;4094;49.948;11.574;2023-07-28T02:17:58;20.20;81.40
8103;DHT22;4094;49.948;11.574;2023-07-28T02:20:28;20.20;81.40
8103;DHT22;4094;49.948;11.574;2023-07-28T02:22:57;20.20;81.40
8103;DHT22;4094;49.948;11.574;2023-07-28T02:25:27;20.20;81.40
8103;DHT22;4094;49.948;11.574;2023-07-28T02:27:56;20.20;81.40
8103;DHT22;4094;49.948;11.574;2023-07-28T02:30:27;20.20;81.40
8103;DHT22;4094;49.948;11.574;2023-07-28T02:32:57;20.20;81.30
8103;DHT22;4094;49.948;11.574;2023-07-28T02:35:26;20.20;81.30
8103;DHT22;4094;49.948;11.574;2023-07-28T02:37:55;20.20;81.30
8103;DHT22;4094;49.948;11.574;2023-07-28T02:40:24;20.20;81.40
8103;DHT22;4094;49.948;11.574;2023-07-28T02:42:54;20.20;81.40
8103;DHT22;4094;49.948;11.574;2023-07-28T02:45:24;20.20;81.40
8103;DHT22;4094;49.948;11.574;2023-07-28T02:47:55;20.20;81.40
8103;DHT22;4094;49.948;11.574;2023-07-28T02:50:24;20.20;81.30
8103;DHT22;4094;49.948;11.574;2023-07-28T02:52:53;20.20;81.40
8103;DHT22;4094;49.948;11.574;2023-07-28T02:55:23;20.20;81.40
8103;DHT22;4094;49.948;11.574;2023-07-28T02:57:52;20.20;81.30
8103;DHT22;4094;49.948;11.574;2023-07-28T03:00:21;20.20;81.40
8103;DHT22;4094;49.948;11.574;2023-07-28T03:02:51;20.20;81.40
8103;DHT22;4094;49.948;11.574;2023-07-28T03:05:22;20.20;81.40
8103;DHT22;4094;49.948;11.574;2023-07-28T03:08:11;20.20;81.30
8103;DHT22;4094;49.948;11.574;2023-07-28T03:10:40;20.20;81.40
8103;DHT22;4094;49.948;11.574;2023-07-28T03:13:10;20.30;81.60
8103;DHT22;4094;49.948;11.574;2023-07-28T03:15:39;20.20;81.50
8103;DHT22;4094;49.948;11.574;2023-07-28T03:18:08;20.20;81.50
8103;DHT22;4094;49.948;11.574;2023-07-28T03:20:39;20.20;81.70
8103;DHT22;4094;49.948;11.574;2023-07-28T03:23:09;20.20;81.70
8103;DHT22;4094;49.948;11.574;2023-07-28T03:25:38;20.20;81.80
8103;DHT22;4094;49.948;11.574;2023-07-28T03:28:07;20.20;81.80
8103;DHT22;4094;49.948;11.574;2023-07-28T03:30:37;20.20;82.60
8103;DHT22;4094;49.948;11.574;2023-07-28T03:33:06;20.20;81.80
8103;DHT22;4094;49.948;11.574;2023-07-28T03:35:35;20.20;81.80
8103;DHT22;4094;49.948;11.574;2023-07-28T03:38:10;20.20;81.90
8103;DHT22;4094;49.948;11.574;2023-07-28T03:40:41;20.20;81.90
8103;DHT22;4094;49.948;11.574;2023-07-28T03:43:12;20.20;82.00
8103;DHT22;4094;49.948;11.574;2023-07-28T03:45:41;20.20;82.10
8103;DHT22;4094;49.948;11.574;2023-07-28T03:48:10;20.20;82.00
8103;DHT22;4094;49.948;11.574;2023-07-28T03:50:40;20.20;82.00
8103;DHT22;4094;49.948;11.574;2023-07-28T03:53:10;20.20;82.10
8103;DHT22;4094;49.948;11.574;2023-07-28T03:55:40;20.20;82.30
8103;DHT22;4094;49.948;11.574;2023-07-28T03:58:09;20.20;82.30
8103;DHT22;4094;49.948;11.574;2023-07-28T04:00:39;20.20;82.30
8103;DHT22;4094;49.948;11.574;2023-07-28T04:03:08;20.20;82.40
8103;DHT22;4094;49.948;11.574;2023-07-28T04:05:37;20.20;82.50
8103;DHT22;4094;49.948;11.574;2023-07-28T04:08:06;20.20;82.60
8103;DHT22;4094;49.948;11.574;2023-07-28T04:10:37;20.20;82.70
8103;DHT22;4094;49.948;11.574;2023-07-28T04:13:08;20.20;82.50
8103;DHT22;4094;49.948;11.574;2023-07-28T04:15:37;20.20;82.60
8103;DHT22;4094;49.948;11.574;2023-07-28T04:18:07;20.20;82.60
8103;DHT22;4094;49.948;11.574;2023-07-28T04:20:37;20.30;82.50
8103;DHT22;4094;49.948;11.574;2023-07-28T04:23:06;20.20;83.20
8103;DHT22;4094;49.948;11.574;2023-07-28T04:25:40;20.20;82.40
8103;DHT22;4094;49.948;11.574;2023-07-28T04:28:09;20.30;83.20
8103;DHT22;4094;49.948;11.574;2023-07-28T04:30:38;20.30;82.60
8103;DHT22;4094;49.948;11.574;2023-07-28T04:33:13;20.30;82.60
8103;DHT22;4094;49.948;11.574;2023-07-28T04:35:43;20.30;82.60
8103;DHT22;4094;49.948;11.574;2023-07-28T04:38:19;20.30;82.60
8103;DHT22;4094;49.948;11.574;2023-07-28T04:40:56;20.30;82.60
8103;DHT22;4094;49.948;11.574;2023-07-28T04:43:42;20.30;82.50
8103;DHT22;4094;49.948;11.574;2023-07-28T04:46:11;20.30;82.60
8103;DHT22;4094;49.948;11.574;2023-07-28T04:48:43;20.30;82.50
8103;DHT22;4094;49.948;11.574;2023-07-28T04:51:32;20.30;82.30
8103;DHT22;4094;49.948;11.574;2023-07-28T04:54:20;20.30;82.40
8103;DHT22;4094;49.948;11.574;2023-07-28T04:56:53;20.30;82.40
8103;DHT22;4094;49.948;11.574;2023-07-28T04:59:29;20.40;82.40
8103;DHT22;4094;49.948;11.574;2023-07-28T05:01:58;20.30;82.40
8103;DHT22;4094;49.948;11.574;2023-07-28T05:04:27;20.40;82.50
8103;DHT22;4094;49.948;11.574;2023-07-28T05:06:57;20.40;82.50
8103;DHT22;4094;49.948;11.574;2023-07-28T05:09:26;20.40;82.50
8103;DHT22;4094;49.948;11.574;2023-07-28T05:11:59;20.40;82.50
8103;DHT22;4094;49.948;11.574;2023-07-28T05:14:30;20.40;82.40
8103;DHT22;4094;49.948;11.574;2023-07-28T05:16:59;20.40;82.50
8103;DHT22;4094;49.948;11.574;2023-07-28T05:19:45;20.40;82.60
8103;DHT22;4094;49.948;11.574;2023-07-28T05:22:36;20.40;82.60
8103;DHT22;4094;49.948;11.574;2023-07-28T05:25:06;20.40;82.80
8103;DHT22;4094;49.948;11.574;2023-07-28T05:27:41;20.40;82.80
8103;DHT22;4094;49.948;11.574;2023-07-28T05:30:10;20.40;82.80
8103;DHT22;4094;49.948;11.574;2023-07-28T05:32:40;20.40;82.80
8103;DHT22;4094;49.948;11.574;2023-07-28T05:35:33;20.40;82.80
8103;DHT22;4094;49.948;11.574;2023-07-28T05:38:02;20.40;82.70
8103;DHT22;4094;49.948;11.574;2023-07-28T05:40:31;20.40;82.80
8103;DHT22;4094;49.948;11.574;2023-07-28T05:43:02;20.50;82.90
8103;DHT22;4094;49.948;11.574;2023-07-28T05:45:32;20.50;83.10
8103;DHT22;4094;49.948;11.574;2023-07-28T05:48:01;20.50;83.00
8103;DHT22;4094;49.948;11.574;2023-07-28T05:50:31;20.50;82.80
8103;DHT22;4094;49.948;11.574;2023-07-28T05:53:00;20.50;82.80
8103;DHT22;4094;49.948;11.574;2023-07-28T05:55:31;20.50;82.90
8103;DHT22;4094;49.948;11.574;2023-07-28T05:58:01;20.50;82.50
8103;DHT22;4094;49.948;11.574;2023-07-28T06:00:32;20.50;82.50
8103;DHT22;4094;49.948;11.574;2023-07-28T06:03:02;20.50;82.60
8103;DHT22;4094;49.948;11.574;2023-07-28T06:05:52;20.50;82.60
8103;DHT22;4094;49.948;11.574;2023-07-28T06:08:21;20.50;82.60
8103;DHT22;4094;49.948;11.574;2023-07-28T06:10:51;20.50;82.50
8103;DHT22;4094;49.948;11.574;2023-07-28T06:13:21;20.60;82.90
8103;DHT22;4094;49.948;11.574;2023-07-28T06:15:53;20.50;82.90
8103;DHT22;4094;49.948;11.574;2023-07-28T06:18:22;20.60;83.00
8103;DHT22;4094;49.948;11.574;2023-07-28T06:21:00;20.60;83.10
8103;DHT22;4094;49.948;11.574;2023-07-28T06:23:29;20.60;83.20
8103;DHT22;4094;49.948;11.574;2023-07-28T06:25:59;20.60;83.20
8103;DHT22;4094;49.948;11.574;2023-07-28T06:28:32;20.60;83.20
8103;DHT22;4094;49.948;11.574;2023-07-28T06:31:01;20.60;83.20
8103;DHT22;4094;49.948;11.574;2023-07-28T06:33:31;20.60;83.10
8103;DHT22;4094;49.948;11.574;2023-07-28T06:36:01;20.60;83.10
8103;DHT22;4094;49.948;11.574;2023-07-28T06:38:30;20.60;83.10
8103;DHT22;4094;49.948;11.574;2023-07-28T06:41:00;20.70;83.40
8103;DHT22;4094;49.948;11.574;2023-07-28T06:43:32;20.70;83.40
8103;DHT22;4094;49.948;11.574;2023-07-28T06:46:02;20.70;83.20
8103;DHT22;4094;49.948;11.574;2023-07-28T06:48:32;20.70;83.30
8103;DHT22;4094;49.948;11.574;2023-07-28T06:51:02;20.80;83.40
8103;DHT22;4094;49.948;11.574;2023-07-28T06:53:31;20.80;83.30
8103;DHT22;4094;49.948;11.574;2023-07-28T06:56:02;20.80;83.10
8103;DHT22;4094;49.948;11.574;2023-07-28T06:58:33;20.80;83.30
8103;DHT22;4094;49.948;11.574;2023-07-28T07:01:03;20.80;83.20
8103;DHT22;4094;49.948;11.574;2023-07-28T07:03:32;20.80;83.20
8103;DHT22;4094;49.948;11.574;2023-07-28T07:06:02;20.80;83.40
8103;DHT22;4094;49.948;11.574;2023-07-28T07:08:31;20.90;83.40
8103;DHT22;4094;49.948;11.574;2023-07-28T07:11:00;20.90;83.40
8103;DHT22;4094;49.948;11.574;2023-07-28T07:13:30;20.90;83.30
8103;DHT22;4094;49.948;11.574;2023-07-28T07:16:04;20.90;83.20
8103;DHT22;4094;49.948;11.574;2023-07-28T07:18:35;20.90;83.10
8103;DHT22;4094;49.948;11.574;2023-07-28T07:21:05;21.00;83.30
8103;DHT22;4094;49.948;11.574;2023-07-28T07:23:37;21.00;83.30
8103;DHT22;4094;49.948;11.574;2023-07-28T07:26:25;21.00;83.20
8103;DHT22;4094;49.948;11.574;2023-07-28T07:28:55;21.00;83.10
8103;DHT22;4094;49.948;11.574;2023-07-28T07:31:25;21.00;83.10
8103;DHT22;4094;49.948;11.574;2023-07-28T07:33:55;21.00;83.00
8103;DHT22;4094;49.948;11.574;2023-07-28T07:36:25;21.00;83.00
8103;DHT22;4094;49.948;11.574;2023-07-28T07:38:55;21.00;83.00
8103;DHT22;4094;49.948;11.574;2023-07-28T07:41:24;21.00;83.00
8103;DHT22;4094;49.948;11.574;2023-07-28T07:43:54;21.00;83.00
8103;DHT22;4094;49.948;11.574;2023-07-28T07:46:24;21.00;83.00
8103;DHT22;4094;49.948;11.574;2023-07-28T07:48:54;21.00;83.10
8103;DHT22;4094;49.948;11.574;2023-07-28T07:51:23;21.00;83.40
8103;DHT22;4094;49.948;11.574;2023-07-28T07:53:53;21.10;83.80
8103;DHT22;4094;49.948;11.574;2023-07-28T07:56:22;21.10;84.10
8103;DHT22;4094;49.948;11.574;2023-07-28T07:58:52;21.10;84.00
8103;DHT22;4094;49.948;11.574;2023-07-28T08:01:23;21.10;83.90
8103;DHT22;4094;49.948;11.574;2023-07-28T08:03:54;21.20;84.10
8103;DHT22;4094;49.948;11.574;2023-07-28T08:06:23;21.20;84.20
8103;DHT22;4094;49.948;11.574;2023-07-28T08:08:53;21.20;84.10
8103;DHT22;4094;49.948;11.574;2023-07-28T08:11:24;21.30;84.20
8103;DHT22;4094;49.948;11.574;2023-07-28T08:13:54;21.30;84.10
8103;DHT22;4094;49.948;11.574;2023-07-28T08:16:26;21.40;84.20
8103;DHT22;4094;49.948;11.574;2023-07-28T08:18:57;21.50;84.60
8103;DHT22;4094;49.948;11.574;2023-07-28T08:21:27;21.50;84.70
8103;DHT22;4094;49.948;11.574;2023-07-28T08:23:56;21.60;84.80
8103;DHT22;4094;49.948;11.574;2023-07-28T08:26:25;21.70;84.60
8103;DHT22;4094;49.948;11.574;2023-07-28T08:28:54;21.80;84.00
8103;DHT22;4094;49.948;11.574;2023-07-28T08:31:24;21.80;83.80
8103;DHT22;4094;49.948;11.574;2023-07-28T08:33:53;21.90;83.50
8103;DHT22;4094;49.948;11.574;2023-07-28T08:36:24;21.90;83.40
8103;DHT22;4094;49.948;11.574;2023-07-28T08:38:53;22.00;83.30
8103;DHT22;4094;49.948;11.574;2023-07-28T08:41:23;22.00;83.20
8103;DHT22;4094;49.948;11.574;2023-07-28T08:43:53;22.10;82.80
8103;DHT22;4094;49.948;11.574;2023-07-28T08:46:22;22.10;82.50
8103;DHT22;4094;49.948;11.574;2023-07-28T08:48:52;22.10;82.40
8103;DHT22;4094;49.948;11.574;2023-07-28T08:51:23;22.10;82.10
8103;DHT22;4094;49.948;11.574;2023-07-28T08:53:53;22.10;81.90
8103;DHT22;4094;49.948;11.574;2023-07-28T08:56:24;22.10;82.30
8103;DHT22;4094;49.948;11.574;2023-07-28T08:58:57;22.10;81.00
8103;DHT22;4094;49.948;11.574;2023-07-28T09:01:27;22.10;81.00
8103;DHT22;4094;49.948;11.574;2023-07-28T09:03:58;22.10;81.30
8103;DHT22;4094;49.948;11.574;2023-07-28T09:06:30;22.10;81.80
8103;DHT22;4094;49.948;11.574;2023-07-28T09:09:00;22.10;82.10
8103;DHT22;4094;49.948;11.574;2023-07-28T09:11:30;22.10;82.10
8103;DHT22;4094;49.948;11.574;2023-07-28T09:14:01;22.10;82.30
8103;DHT22;4094;49.948;11.574;2023-07-28T09:16:30;22.10;82.30
8103;DHT22;4094;49.948;11.574;2023-07-28T09:19:04;22.10;81.90
8103;DHT22;4094;49.948;11.574;2023-07-28T09:21:38;22.20;81.80
8103;DHT22;4094;49.948;11.574;2023-07-28T09:24:09;22.10;81.40
8103;DHT22;4094;49.948;11.574;2023-07-28T09:26:40;22.20;81.70
8103;DHT22;4094;49.948;11.574;2023-07-28T09:29:12;22.20;81.90
8103;DHT22;4094;49.948;11.574;2023-07-28T09:31:42;22.20;81.60
8103;DHT22;4094;49.948;11.574;2023-07-28T09:34:12;22.30;81.70
8103;DHT22;4094;49.948;11.574;2023-07-28T09:36:43;22.30;82.00
8103;DHT22;4094;49.948;11.574;2023-07-28T09:39:13;22.40;81.90
8103;DHT22;4094;49.948;11.574;2023-07-28T09:41:45;22.40;81.10
8103;DHT22;4094;49.948;11.574;2023-07-28T09:44:15;22.50;80.80
8103;DHT22;4094;49.948;11.574;2023-07-28T09:46:50;22.60;80.80
8103;DHT22;4094;49.948;11.574;2023-07-28T09:49:22;22.60;80.80
8103;DHT22;4094;49.948;11.574;2023-07-28T09:51:57;22.70;81.00
8103;DHT22;4094;49.948;11.574;2023-07-28T09:54:28;22.70;81.20
8103;DHT22;4094;49.948;11.574;2023-07-28T09:56:58;22.90;80.70
8103;DHT22;4094;49.948;11.574;2023-07-28T09:59:29;22.90;80.50
8103;DHT22;4094;49.948;11.574;2023-07-28T10:02:01;23.00;80.00
8103;DHT22;4094;49.948;11.574;2023-07-28T10:04:32;23.00;79.40
8103;DHT22;4094;49.948;11.574;2023-07-28T10:07:04;23.10;79.80
8103;DHT22;4094;49.948;11.574;2023-07-28T10:09:34;23.20;79.50
8103;DHT22;4094;49.948;11.574;2023-07-28T10:12:06;23.20;79.30
8103;DHT22;4094;49.948;11.574;2023-07-28T10:14:36;23.30;79.60
8103;DHT22;4094;49.948;11.574;2023-07-28T10:17:06;23.30;79.70
8103;DHT22;4094;49.948;11.574;2023-07-28T10:19:36;23.30;79.20
8103;DHT22;4094;49.948;11.574;2023-07-28T10:22:08;23.40;78.70
8103;DHT22;4094;49.948;11.574;2023-07-28T10:24:50;23.50;78.40
8103;DHT22;4094;49.948;11.574;2023-07-28T10:27:30;23.60;77.90
8103;DHT22;4094;49.948;11.574;2023-07-28T10:30:01;23.70;77.80
8103;DHT22;4094;49.948;11.574;2023-07-28T10:32:38;23.80;77.20
8103;DHT22;4094;49.948;11.574;2023-07-28T10:35:09;23.80;76.80
8103;DHT22;4094;49.948;11.574;2023-07-28T10:37:53;23.90;77.20
8103;DHT22;4094;49.948;11.574;2023-07-28T10:40:27;24.00;76.50
8103;DHT22;4094;49.948;11.574;2023-07-28T10:42:58;24.10;76.00
8103;DHT22;4094;49.948;11.574;2023-07-28T10:45:29;24.10;75.70
8103;DHT22;4094;49.948;11.574;2023-07-28T10:47:59;24.10;75.30
8103;DHT22;4094;49.948;11.574;2023-07-28T10:50:32;24.20;75.00
8103;DHT22;4094;49.948;11.574;2023-07-28T10:53:03;24.20;74.70
8103;DHT22;4094;49.948;11.574;2023-07-28T10:55:32;24.20;74.80
8103;DHT22;4094;49.948;11.574;2023-07-28T10:58:04;24.20;75.00
8103;DHT22;4094;49.948;11.574;2023-07-28T11:00:34;24.20;74.60
8103;DHT22;4094;49.948;11.574;2023-07-28T11:03:04;24.30;75.20
8103;DHT22;4094;49.948;11.574;2023-07-28T11:05:33;24.30;74.40
8103;DHT22;4094;49.948;11.574;2023-07-28T11:08:05;24.40;74.70
8103;DHT22;4094;49.948;11.574;2023-07-28T11:10:36;24.50;74.20
8103;DHT22;4094;49.948;11.574;2023-07-28T11:13:06;24.60;73.00
8103;DHT22;4094;49.948;11.574;2023-07-28T11:15:57;24.60;72.50
8103;DHT22;4094;49.948;11.574;2023-07-28T11:18:27;24.60;72.20
8103;DHT22;4094;49.948;11.574;2023-07-28T11:20:56;24.60;71.60
8103;DHT22;4094;49.948;11.574;2023-07-28T11:23:28;24.60;71.50
8103;DHT22;4094;49.948;11.574;2023-07-28T11:25:58;24.60;71.30
8103;DHT22;4094;49.948;11.574;2023-07-28T11:28:28;24.60;72.20
8103;DHT22;4094;49.948;11.574;2023-07-28T11:30:59;24.60;72.30
8103;DHT22;4094;49.948;11.574;2023-07-28T11:33:28;24.60;72.30
8103;DHT22;4094;49.948;11.574;2023-07-28T11:35:58;24.70;71.70
8103;DHT22;4094;49.948;11.574;2023-07-28T11:38:29;24.80;71.20
8103;DHT22;4094;49.948;11.574;2023-07-28T11:41:00;24.80;70.50
8103;DHT22;4094;49.948;11.574;2023-07-28T11:43:32;24.80;69.80
8103;DHT22;4094;49.948;11.574;2023-07-28T11:46:01;24.80;70.00
8103;DHT22;4094;49.948;11.574;2023-07-28T11:48:30;24.80;70.10
8103;DHT22;4094;49.948;11.574;2023-07-28T11:51:01;24.80;69.40
8103;DHT22;4094;49.948;11.574;2023-07-28T11:53:34;24.80;69.70
8103;DHT22;4094;49.948;11.574;2023-07-28T11:56:05;24.80;69.20
8103;DHT22;4094;49.948;11.574;2023-07-28T11:58:35;24.80;69.60
8103;DHT22;4094;49.948;11.574;2023-07-28T12:01:08;24.80;69.80
8103;DHT22;4094;49.948;11.574;2023-07-28T12:03:38;24.80;70.00
8103;DHT22;4094;49.948;11.574;2023-07-28T12:06:08;24.80;69.40
8103;DHT22;4094;49.948;11.574;2023-07-28T12:09:07;24.80;68.80
8103;DHT22;4094;49.948;11.574;2023-07-28T12:11:42;24.80;68.80
8103;DHT22;4094;49.948;11.574;2023-07-28T12:14:15;24.80;69.20
8103;DHT22;4094;49.948;11.574;2023-07-28T12:16:47;24.80;69.40
8103;DHT22;4094;49.948;11.574;2023-07-28T12:19:20;24.90;69.70
8103;DHT22;4094;49.948;11.574;2023-07-28T12:21:50;24.90;69.80
8103;DHT22;4094;49.948;11.574;2023-07-28T12:24:20;25.00;70.20
8103;DHT22;4094;49.948;11.574;2023-07-28T12:26:51;25.10;70.20
8103;DHT22;4094;49.948;11.574;2023-07-28T12:29:20;25.20;70.40
8103;DHT22;4094;49.948;11.574;2023-07-28T12:31:59;25.40;69.80
8103;DHT22;4094;49.948;11.574;2023-07-28T12:34:30;25.50;68.20
8103;DHT22;4094;49.948;11.574;2023-07-28T12:37:18;25.70;68.10
8103;DHT22;4094;49.948;11.574;2023-07-28T12:40:10;25.80;68.40
8103;DHT22;4094;49.948;11.574;2023-07-28T12:42:44;26.00;68.40
8103;DHT22;4094;49.948;11.574;2023-07-28T12:45:17;26.10;67.10
8103;DHT22;4094;49.948;11.574;2023-07-28T12:47:50;26.20;66.70
8103;DHT22;4094;49.948;11.574;2023-07-28T12:50:23;26.30;66.60
8103;DHT22;4094;49.948;11.574;2023-07-28T12:52:52;26.40;65.20
8103;DHT22;4094;49.948;11.574;2023-07-28T12:55:26;26.50;65.80
8103;DHT22;4094;49.948;11.574;2023-07-28T12:57:55;26.60;65.30
8103;DHT22;4094;49.948;11.574;2023-07-28T13:00:26;26.70;65.10
8103;DHT22;4094;49.948;11.574;2023-07-28T13:02:58;26.90;64.10
8103;DHT22;4094;49.948;11.574;2023-07-28T13:05:28;27.10;63.30
8103;DHT22;4094;49.948;11.574;2023-07-28T13:07:58;27.10;62.20
8103;DHT22;4094;49.948;11.574;2023-07-28T13:10:31;27.20;61.80
8103;DHT22;4094;49.948;11.574;2023-07-28T13:13:04;27.20;62.70
8103;DHT22;4094;49.948;11.574;2023-07-28T13:15:33;27.20;62.00
8103;DHT22;4094;49.948;11.574;2023-07-28T13:18:02;27.30;61.20
8103;DHT22;4094;49.948;11.574;2023-07-28T13:20:32;27.30;61.20
8103;DHT22;4094;49.948;11.574;2023-07-28T13:23:01;27.30;61.20
8103;DHT22;4094;49.948;11.574;2023-07-28T13:25:32;27.40;60.50
8103;DHT22;4094;49.948;11.574;2023-07-28T13:28:01;27.40;61.10
8103;DHT22;4094;49.948;11.574;2023-07-28T13:30:31;27.40;60.00
8103;DHT22;4094;49.948;11.574;2023-07-28T13:33:00;27.40;59.80
8103;DHT22;4094;49.948;11.574;2023-07-28T13:35:31;27.50;59.60
8103;DHT22;4094;49.948;11.574;2023-07-28T13:38:00;27.40;58.70
8103;DHT22;4094;49.948;11.574;2023-07-28T13:40:31;27.40;59.50
8103;DHT22;4094;49.948;11.574;2023-07-28T13:43:04;27.30;58.90
8103;DHT22;4094;49.948;11.574;2023-07-28T13:45:34;27.20;58.70
8103;DHT22;4094;49.948;11.574;2023-07-28T13:48:04;27.10;58.80
8103;DHT22;4094;49.948;11.574;2023-07-28T13:50:33;27.10;58.90
8103;DHT22;4094;49.948;11.574;2023-07-28T13:53:05;27.00;58.90
8103;DHT22;4094;49.948;11.574;2023-07-28T13:55:39;27.00;59.20
8103;DHT22;4094;49.948;11.574;2023-07-28T13:58:08;27.00;59.50
8103;DHT22;4094;49.948;11.574;2023-07-28T14:00:38;27.00;59.20
8103;DHT22;4094;49.948;11.574;2023-07-28T14:03:07;27.00;59.10
8103;DHT22;4094;49.948;11.574;2023-07-28T14:05:37;27.00;59.10
8103;DHT22;4094;49.948;11.574;2023-07-28T14:08:07;27.00;59.10
8103;DHT22;4094;49.948;11.574;2023-07-28T14:10:42;27.00;59.00
8103;DHT22;4094;49.948;11.574;2023-07-28T14:13:12;27.10;59.40
8103;DHT22;4094;49.948;11.574;2023-07-28T14:15:41;27.10;58.80
8103;DHT22;4094;49.948;11.574;2023-07-28T14:18:12;27.20;58.80
8103;DHT22;4094;49.948;11.574;2023-07-28T14:20:41;27.20;58.80
8103;DHT22;4094;49.948;11.574;2023-07-28T14:23:24;27.20;59.00
8103;DHT22;4094;49.948;11.574;2023-07-28T14:25:55;27.30;58.60
8103;DHT22;4094;49.948;11.574;2023-07-28T14:28:28;27.30;58.90
8103;DHT22;4094;49.948;11.574;2023-07-28T14:30:57;27.30;58.90
8103;DHT22;4094;49.948;11.574;2023-07-28T14:33:27;27.40;58.20
8103;DHT22;4094;49.948;11.574;2023-07-28T14:35:56;27.40;58.90
8103;DHT22;4094;49.948;11.574;2023-07-28T14:38:26;27.40;58.30
8103;DHT22;4094;49.948;11.574;2023-07-28T14:40:56;27.30;58.20
8103;DHT22;4094;49.948;11.574;2023-07-28T14:43:27;27.30;59.50
8103;DHT22;4094;49.948;11.574;2023-07-28T14:45:56;27.40;58.80
8103;DHT22;4094;49.948;11.574;2023-07-28T14:48:25;27.30;58.70
8103;DHT22;4094;49.948;11.574;2023-07-28T14:50:55;27.40;58.60
8103;DHT22;4094;49.948;11.574;2023-07-28T14:53:31;27.30;58.40
8103;DHT22;4094;49.948;11.574;2023-07-28T14:56:03;27.30;58.40
8103;DHT22;4094;49.948;11.574;2023-07-28T14:58:33;27.30;58.70
8103;DHT22;4094;49.948;11.574;2023-07-28T15:01:03;27.20;58.40
8103;DHT22;4094;49.948;11.574;2023-07-28T15:03:34;27.20;58.70
8103;DHT22;4094;49.948;11.574;2023-07-28T15:06:03;27.20;58.70
8103;DHT22;4094;49.948;11.574;2023-07-28T15:08:33;27.20;58.50
8103;DHT22;4094;49.948;11.574;2023-07-28T15:11:04;27.20;58.60
8103;DHT22;4094;49.948;11.574;2023-07-28T15:13:34;27.20;58.40
8103;DHT22;4094;49.948;11.574;2023-07-28T15:16:04;27.10;58.20
8103;DHT22;4094;49.948;11.574;2023-07-28T15:18:35;27.10;58.10
8103;DHT22;4094;49.948;11.574;2023-07-28T15:21:04;27.10;58.40
8103;DHT22;4094;49.948;11.574;2023-07-28T15:23:34;27.00;58.80
8103;DHT22;4094;49.948;11.574;2023-07-28T15:26:05;27.00;58.20
8103;DHT22;4094;49.948;11.574;2023-07-28T15:28:35;27.10;58.40
8103;DHT22;4094;49.948;11.574;2023-07-28T15:31:05;27.00;58.30
8103;DHT22;4094;49.948;11.574;2023-07-28T15:33:36;27.00;58.60
8103;DHT22;4094;49.948;11.574;2023-07-28T15:36:05;26.90;58.60
8103;DHT22;4094;49.948;11.574;2023-07-28T15:38:37;26.90;58.80
8103;DHT22;4094;49.948;11.574;2023-07-28T15:41:08;26.90;58.70
8103;DHT22;4094;49.948;11.574;2023-07-28T15:43:39;26.90;58.70
8103;DHT22;4094;49.948;11.574;2023-07-28T15:46:08;26.80;58.60
8103;DHT22;4094;49.948;11.574;2023-07-28T15:48:39;26.80;58.80
8103;DHT22;4094;49.948;11.574;2023-07-28T15:51:10;26.70;59.10
8103;DHT22;4094;49.948;11.574;2023-07-28T15:53:40;26.70;59.10
8103;DHT22;4094;49.948;11.574;2023-07-28T15:56:12;26.60;59.00
8103;DHT22;4094;49.948;11.574;2023-07-28T15:58:41;26.60;59.20
8103;DHT22;4094;49.948;11.574;2023-07-28T16:01:10;26.60;59.20
8103;DHT22;4094;49.948;11.574;2023-07-28T16:03:39;26.50;59.10
8103;DHT22;4094;49.948;11.574;2023-07-28T16:06:09;26.60;59.20
8103;DHT22;4094;49.948;11.574;2023-07-28T16:08:38;26.50;59.20
8103;DHT22;4094;49.948;11.574;2023-07-28T16:11:08;26.50;59.10